sensor_id;sensor_type;location;lat;lon;timestamp;pressure;altitude;pressure_sealevel;temperature;humidity
72414;BME280;60995;52.154;4.498;2022-07-12T00:02:07;102400.19;;;17.75;78.55
72414;BME280;60995;52.154;4.498;2022-07-12T00:04:24;102399.19;;;17.66;78.95
72414;BME280;60995;52.154;4.498;2022-07-12T00:06:40;102399.44;;;17.83;78.40
72414;BME280;60995;52.154;4.498;2022-07-12T00:08:56;102402.63;;;17.98;77.55
72414;BME280;60995;52.154;4.498;2022-07-12T00:11:13;102405.97;;;17.72;78.79
72414;BME280;60995;52.154;4.498;2022-07-12T00:13:29;102404.50;;;17.78;78.33
72414;BME280;60995;52.154;4.498;2022-07-12T00:15:46;102396.31;;;17.48;79.73
72414;BME280;60995;52.154;4.498;2022-07-12T00:18:02;102401.34;;;17.73;78.63
72414;BME280;60995;52.154;4.498;2022-07-12T00:20:19;102404.09;;;17.73;78.90
72414;BME280;60995;52.154;4.498;2022-07-12T00:22:35;102407.91;;;18.19;76.66
72414;BME280;60995;52.154;4.498;2022-07-12T00:24:51;102403.84;;;18.23;76.27
72414;BME280;60995;52.154;4.498;2022-07-12T00:27:07;102402.59;;;18.17;76.39
72414;BME280;60995;52.154;4.498;2022-07-12T00:29:24;102400.75;;;17.98;77.37
72414;BME280;60995;52.154;4.498;2022-07-12T00:31:40;102403.03;;;18.13;76.81
72414;BME280;60995;52.154;4.498;2022-07-12T00:33:56;102406.59;;;18.23;76.24
72414;BME280;60995;52.154;4.498;2022-07-12T00:36:12;102401.91;;;17.86;77.86
72414;BME280;60995;52.154;4.498;2022-07-12T00:38:29;102404.69;;;17.66;78.72
72414;BME280;60995;52.154;4.498;2022-07-12T00:40:45;102397.19;;;17.49;79.31
72414;BME280;60995;52.154;4.498;2022-07-12T00:43:02;102398.03;;;17.30;80.93
72414;BME280;60995;52.154;4.498;2022-07-12T00:45:18;102407.84;;;17.62;79.92
72414;BME280;60995;52.154;4.498;2022-07-12T00:47:52;102403.84;;;17.56;79.61
72414;BME280;60995;52.154;4.498;2022-07-12T00:50:20;102404.97;;;17.44;80.20
72414;BME280;60995;52.154;4.498;2022-07-12T00:52:38;102400.91;;;17.28;80.87
72414;BME280;60995;52.154;4.498;2022-07-12T00:54:54;102406.72;;;17.25;81.23
72414;BME280;60995;52.154;4.498;2022-07-12T00:57:13;102401.22;;;17.25;81.10
72414;BME280;60995;52.154;4.498;2022-07-12T00:59:30;102392.00;;;17.26;81.07
72414;BME280;60995;52.154;4.498;2022-07-12T01:01:46;102384.47;;;17.28;80.64
72414;BME280;60995;52.154;4.498;2022-07-12T01:04:02;102388.94;;;17.10;81.62
72414;BME280;60995;52.154;4.498;2022-07-12T01:06:20;102386.16;;;17.00;81.81
72414;BME280;60995;52.154;4.498;2022-07-12T01:08:37;102390.22;;;17.15;81.46
72414;BME280;60995;52.154;4.498;2022-07-12T01:10:54;102384.19;;;17.12;81.14
72414;BME280;60995;52.154;4.498;2022-07-12T01:13:13;102373.78;;;17.15;81.25
72414;BME280;60995;52.154;4.498;2022-07-12T01:15:29;102376.22;;;17.09;81.40
72414;BME280;60995;52.154;4.498;2022-07-12T01:17:47;102368.31;;;17.06;80.89
72414;BME280;60995;52.154;4.498;2022-07-12T01:20:04;102359.91;;;17.07;81.08
72414;BME280;60995;52.154;4.498;2022-07-12T01:22:35;102365.81;;;17.02;81.33
72414;BME280;60995;52.154;4.498;2022-07-12T01:24:56;102370.31;;;17.03;81.15
72414;BME280;60995;52.154;4.498;2022-07-12T01:27:13;102371.59;;;16.99;80.89
72414;BME280;60995;52.154;4.498;2022-07-12T01:29:30;102369.59;;;17.11;80.56
72414;BME280;60995;52.154;4.498;2022-07-12T01:31:47;102379.41;;;17.14;80.05
72414;BME280;60995;52.154;4.498;2022-07-12T01:34:04;102378.69;;;17.22;79.69
72414;BME280;60995;52.154;4.498;2022-07-12T01:36:22;102379.84;;;17.19;79.46
72414;BME280;60995;52.154;4.498;2022-07-12T01:38:39;102378.97;;;17.28;79.19
72414;BME280;60995;52.154;4.498;2022-07-12T01:40:55;102383.63;;;17.28;79.10
72414;BME280;60995;52.154;4.498;2022-07-12T01:43:12;102385.63;;;17.26;79.66
72414;BME280;60995;52.154;4.498;2022-07-12T01:45:29;102395.31;;;17.40;78.75
72414;BME280;60995;52.154;4.498;2022-07-12T01:47:46;102385.91;;;17.32;78.69
72414;BME280;60995;52.154;4.498;2022-07-12T01:50:07;102399.91;;;17.49;78.31
72414;BME280;60995;52.154;4.498;2022-07-12T01:52:26;102394.28;;;17.50;78.45
72414;BME280;60995;52.154;4.498;2022-07-12T01:54:42;102399.19;;;17.57;77.59
72414;BME280;60995;52.154;4.498;2022-07-12T01:56:59;102398.34;;;17.56;77.96
72414;BME280;60995;52.154;4.498;2022-07-12T01:59:16;102399.50;;;17.34;78.41
72414;BME280;60995;52.154;4.498;2022-07-12T02:01:35;102407.56;;;17.26;78.96
72414;BME280;60995;52.154;4.498;2022-07-12T02:03:53;102402.09;;;17.16;79.36
72414;BME280;60995;52.154;4.498;2022-07-12T02:06:10;102401.78;;;17.19;79.26
72414;BME280;60995;52.154;4.498;2022-07-12T02:08:26;102411.88;;;17.09;79.53
72414;BME280;60995;52.154;4.498;2022-07-12T02:10:43;102411.91;;;17.28;79.00
72414;BME280;60995;52.154;4.498;2022-07-12T02:13:03;102408.88;;;17.31;78.69
72414;BME280;60995;52.154;4.498;2022-07-12T02:15:19;102396.03;;;17.42;77.77
72414;BME280;60995;52.154;4.498;2022-07-12T02:17:35;102399.94;;;17.59;77.24
72414;BME280;60995;52.154;4.498;2022-07-12T02:19:52;102391.53;;;17.60;77.20
72414;BME280;60995;52.154;4.498;2022-07-12T02:22:08;102387.94;;;17.40;77.73
72414;BME280;60995;52.154;4.498;2022-07-12T02:24:25;102382.88;;;17.16;78.95
72414;BME280;60995;52.154;4.498;2022-07-12T02:26:41;102381.59;;;17.20;78.98
72414;BME280;60995;52.154;4.498;2022-07-12T02:28:59;102385.75;;;17.05;79.56
72414;BME280;60995;52.154;4.498;2022-07-12T02:31:16;102387.75;;;17.02;79.18
72414;BME280;60995;52.154;4.498;2022-07-12T02:33:33;102387.94;;;17.30;78.80
72414;BME280;60995;52.154;4.498;2022-07-12T02:35:49;102377.41;;;17.35;77.88
72414;BME280;60995;52.154;4.498;2022-07-12T02:38:06;102387.63;;;17.53;77.58
72414;BME280;60995;52.154;4.498;2022-07-12T02:40:22;102390.22;;;17.35;77.72
72414;BME280;60995;52.154;4.498;2022-07-12T02:43:05;102389.38;;;17.34;77.49
72414;BME280;60995;52.154;4.498;2022-07-12T02:45:21;102390.38;;;17.33;78.04
72414;BME280;60995;52.154;4.498;2022-07-12T02:47:38;102394.28;;;17.31;78.26
72414;BME280;60995;52.154;4.498;2022-07-12T02:49:55;102395.31;;;17.20;78.80
72414;BME280;60995;52.154;4.498;2022-07-12T02:52:11;102399.78;;;17.41;77.44
72414;BME280;60995;52.154;4.498;2022-07-12T02:54:28;102394.59;;;17.28;77.39
72414;BME280;60995;52.154;4.498;2022-07-12T02:56:44;102395.72;;;17.06;78.65
72414;BME280;60995;52.154;4.498;2022-07-12T02:59:00;102395.59;;;17.36;77.69
72414;BME280;60995;52.154;4.498;2022-07-12T03:01:16;102394.28;;;17.21;77.62
72414;BME280;60995;52.154;4.498;2022-07-12T03:03:32;102404.34;;;16.91;78.89
72414;BME280;60995;52.154;4.498;2022-07-12T03:05:49;102395.25;;;16.91;78.91
72414;BME280;60995;52.154;4.498;2022-07-12T03:08:07;102398.09;;;16.79;79.55
72414;BME280;60995;52.154;4.498;2022-07-12T03:10:24;102397.28;;;16.48;81.12
72414;BME280;60995;52.154;4.498;2022-07-12T03:12:40;102396.50;;;16.77;79.67
72414;BME280;60995;52.154;4.498;2022-07-12T03:14:57;102408.41;;;16.66;79.98
72414;BME280;60995;52.154;4.498;2022-07-12T03:17:13;102406.22;;;16.91;79.66
72414;BME280;60995;52.154;4.498;2022-07-12T03:19:29;102407.25;;;16.99;78.77
72414;BME280;60995;52.154;4.498;2022-07-12T03:21:45;102404.94;;;16.95;78.50
72414;BME280;60995;52.154;4.498;2022-07-12T03:24:02;102409.84;;;16.91;78.84
72414;BME280;60995;52.154;4.498;2022-07-12T03:26:18;102410.47;;;16.74;79.36
72414;BME280;60995;52.154;4.498;2022-07-12T03:28:34;102409.44;;;16.65;79.72
72414;BME280;60995;52.154;4.498;2022-07-12T03:30:51;102405.69;;;16.66;79.94
72414;BME280;60995;52.154;4.498;2022-07-12T03:33:07;102403.53;;;16.60;80.27
72414;BME280;60995;52.154;4.498;2022-07-12T03:35:23;102401.69;;;16.70;79.88
72414;BME280;60995;52.154;4.498;2022-07-12T03:37:45;102401.13;;;16.86;79.66
72414;BME280;60995;52.154;4.498;2022-07-12T03:40:03;102401.41;;;16.83;79.62
72414;BME280;60995;52.154;4.498;2022-07-12T03:42:20;102409.28;;;16.97;79.47
72414;BME280;60995;52.154;4.498;2022-07-12T03:44:36;102411.03;;;17.18;78.14
72414;BME280;60995;52.154;4.498;2022-07-12T03:46:53;102410.72;;;17.11;78.64
72414;BME280;60995;52.154;4.498;2022-07-12T03:49:09;102406.69;;;17.06;78.35
72414;BME280;60995;52.154;4.498;2022-07-12T03:51:26;102416.25;;;17.21;78.45
72414;BME280;60995;52.154;4.498;2022-07-12T03:53:42;102417.38;;;17.18;78.23
72414;BME280;60995;52.154;4.498;2022-07-12T03:55:58;102408.88;;;17.41;77.36
72414;BME280;60995;52.154;4.498;2022-07-12T03:58:15;102405.09;;;17.52;77.49
72414;BME280;60995;52.154;4.498;2022-07-12T04:00:31;102401.94;;;17.66;76.38
72414;BME280;60995;52.154;4.498;2022-07-12T04:02:47;102398.31;;;17.66;76.37
72414;BME280;60995;52.154;4.498;2022-07-12T04:05:05;102406.25;;;17.69;76.01
72414;BME280;60995;52.154;4.498;2022-07-12T04:07:22;102405.25;;;17.80;76.03
72414;BME280;60995;52.154;4.498;2022-07-12T04:09:38;102411.34;;;17.64;76.41
72414;BME280;60995;52.154;4.498;2022-07-12T04:11:55;102409.28;;;17.66;76.32
72414;BME280;60995;52.154;4.498;2022-07-12T04:14:11;102405.81;;;17.74;75.63
72414;BME280;60995;52.154;4.498;2022-07-12T04:16:28;102404.75;;;18.14;74.71
72414;BME280;60995;52.154;4.498;2022-07-12T04:18:45;102403.75;;;18.15;74.55
72414;BME280;60995;52.154;4.498;2022-07-12T04:21:02;102403.97;;;18.31;74.10
72414;BME280;60995;52.154;4.498;2022-07-12T04:23:18;102400.25;;;18.23;74.23
72414;BME280;60995;52.154;4.498;2022-07-12T04:25:34;102401.53;;;18.28;74.00
72414;BME280;60995;52.154;4.498;2022-07-12T04:27:50;102408.25;;;18.06;74.92
72414;BME280;60995;52.154;4.498;2022-07-12T04:30:07;102400.59;;;18.10;74.77
72414;BME280;60995;52.154;4.498;2022-07-12T04:32:24;102409.78;;;18.28;74.00
72414;BME280;60995;52.154;4.498;2022-07-12T04:34:40;102405.81;;;18.03;75.15
72414;BME280;60995;52.154;4.498;2022-07-12T04:36:57;102400.78;;;18.36;74.49
72414;BME280;60995;52.154;4.498;2022-07-12T04:39:13;102407.03;;;18.56;73.64
72414;BME280;60995;52.154;4.498;2022-07-12T04:41:30;102405.38;;;19.01;72.06
72414;BME280;60995;52.154;4.498;2022-07-12T04:43:46;102400.09;;;18.90;72.57
72414;BME280;60995;52.154;4.498;2022-07-12T04:46:09;102402.47;;;19.03;71.47
72414;BME280;60995;52.154;4.498;2022-07-12T04:48:26;102400.34;;;18.68;72.66
72414;BME280;60995;52.154;4.498;2022-07-12T04:50:42;102403.78;;;18.71;73.11
72414;BME280;60995;52.154;4.498;2022-07-12T04:52:59;102404.84;;;18.88;72.44
72414;BME280;60995;52.154;4.498;2022-07-12T04:55:15;102403.41;;;18.93;72.29
72414;BME280;60995;52.154;4.498;2022-07-12T04:57:32;102404.25;;;18.94;71.96
72414;BME280;60995;52.154;4.498;2022-07-12T04:59:48;102405.16;;;18.84;72.38
72414;BME280;60995;52.154;4.498;2022-07-12T05:02:05;102401.75;;;18.73;73.05
72414;BME280;60995;52.154;4.498;2022-07-12T05:04:21;102408.56;;;19.24;71.48
72414;BME280;60995;52.154;4.498;2022-07-12T05:06:40;102413.06;;;19.51;70.00
72414;BME280;60995;52.154;4.498;2022-07-12T05:08:57;102409.31;;;19.53;70.29
72414;BME280;60995;52.154;4.498;2022-07-12T05:11:14;102408.28;;;19.72;69.10
72414;BME280;60995;52.154;4.498;2022-07-12T05:13:30;102408.44;;;19.52;69.70
72414;BME280;60995;52.154;4.498;2022-07-12T05:15:47;102416.66;;;19.44;70.42
72414;BME280;60995;52.154;4.498;2022-07-12T05:18:03;102423.28;;;19.59;70.25
72414;BME280;60995;52.154;4.498;2022-07-12T05:20:20;102424.09;;;20.75;66.27
72414;BME280;60995;52.154;4.498;2022-07-12T05:22:36;102422.38;;;21.91;62.21
72414;BME280;60995;52.154;4.498;2022-07-12T05:24:53;102427.09;;;23.49;57.00
72414;BME280;60995;52.154;4.498;2022-07-12T05:27:09;102428.16;;;25.21;51.44
72414;BME280;60995;52.154;4.498;2022-07-12T05:29:31;102428.41;;;25.63;50.35
72414;BME280;60995;52.154;4.498;2022-07-12T05:31:47;102425.31;;;26.29;48.45
72414;BME280;60995;52.154;4.498;2022-07-12T05:34:04;102425.25;;;25.94;48.96
72414;BME280;60995;52.154;4.498;2022-07-12T05:36:21;102423.28;;;28.15;43.69
72414;BME280;60995;52.154;4.498;2022-07-12T05:38:37;102423.47;;;28.20;43.32
72414;BME280;60995;52.154;4.498;2022-07-12T05:41:15;102420.97;;;29.16;41.41
72414;BME280;60995;52.154;4.498;2022-07-12T05:43:32;102427.09;;;29.00;42.57
72414;BME280;60995;52.154;4.498;2022-07-12T05:45:50;102420.63;;;29.06;41.90
72414;BME280;60995;52.154;4.498;2022-07-12T05:48:06;102430.47;;;29.47;41.29
72414;BME280;60995;52.154;4.498;2022-07-12T05:50:23;102422.28;;;28.55;42.80
72414;BME280;60995;52.154;4.498;2022-07-12T05:52:39;102414.97;;;30.64;39.01
72414;BME280;60995;52.154;4.498;2022-07-12T05:55:14;102427.25;;;30.01;39.57
72414;BME280;60995;52.154;4.498;2022-07-12T05:57:33;102424.19;;;29.20;41.39
72414;BME280;60995;52.154;4.498;2022-07-12T06:00:03;102423.06;;;27.50;45.21
72414;BME280;60995;52.154;4.498;2022-07-12T06:02:23;102425.88;;;28.82;42.72
72414;BME280;60995;52.154;4.498;2022-07-12T06:04:54;102429.25;;;28.32;43.42
72414;BME280;60995;52.154;4.498;2022-07-12T06:07:14;102425.94;;;27.08;46.37
72414;BME280;60995;52.154;4.498;2022-07-12T06:13:43;102420.81;;;24.61;53.74
72414;BME280;60995;52.154;4.498;2022-07-12T06:16:00;102425.72;;;25.48;51.29
72414;BME280;60995;52.154;4.498;2022-07-12T06:18:16;102426.50;;;25.05;52.40
72414;BME280;60995;52.154;4.498;2022-07-12T06:20:32;102430.09;;;24.69;53.69
72414;BME280;60995;52.154;4.498;2022-07-12T06:22:52;102431.16;;;24.68;53.83
72414;BME280;60995;52.154;4.498;2022-07-12T06:25:08;102426.06;;;25.23;52.58
72414;BME280;60995;52.154;4.498;2022-07-12T06:27:25;102417.72;;;26.93;48.17
72414;BME280;60995;52.154;4.498;2022-07-12T06:29:44;102427.88;;;26.66;48.48
72414;BME280;60995;52.154;4.498;2022-07-12T06:32:04;102425.16;;;26.72;48.77
72414;BME280;60995;52.154;4.498;2022-07-12T06:34:24;102433.81;;;26.49;48.80
72414;BME280;60995;52.154;4.498;2022-07-12T06:36:41;102435.94;;;28.11;45.62
72414;BME280;60995;52.154;4.498;2022-07-12T06:38:59;102436.63;;;29.31;42.25
72414;BME280;60995;52.154;4.498;2022-07-12T06:41:16;102436.72;;;29.49;42.11
72414;BME280;60995;52.154;4.498;2022-07-12T06:43:35;102451.81;;;27.77;45.81
72414;BME280;60995;52.154;4.498;2022-07-12T06:45:52;102449.88;;;27.58;45.74
72414;BME280;60995;52.154;4.498;2022-07-12T06:48:09;102444.75;;;28.21;45.07
72414;BME280;60995;52.154;4.498;2022-07-12T06:50:25;102454.59;;;27.90;45.69
72414;BME280;60995;52.154;4.498;2022-07-12T06:52:42;102438.94;;;27.76;45.76
72414;BME280;60995;52.154;4.498;2022-07-12T06:54:58;102437.72;;;29.23;42.73
72414;BME280;60995;52.154;4.498;2022-07-12T06:57:15;102439.75;;;29.41;42.34
72414;BME280;60995;52.154;4.498;2022-07-12T06:59:31;102442.00;;;29.26;41.96
72414;BME280;60995;52.154;4.498;2022-07-12T07:01:47;102437.00;;;28.17;44.64
72414;BME280;60995;52.154;4.498;2022-07-12T07:04:05;102438.50;;;27.52;46.39
72414;BME280;60995;52.154;4.498;2022-07-12T07:06:22;102435.72;;;27.52;46.90
72414;BME280;60995;52.154;4.498;2022-07-12T07:08:41;102433.34;;;27.83;46.56
72414;BME280;60995;52.154;4.498;2022-07-12T07:10:58;102433.97;;;29.68;42.21
72414;BME280;60995;52.154;4.498;2022-07-12T07:13:14;102435.47;;;29.96;42.25
72414;BME280;60995;52.154;4.498;2022-07-12T07:15:33;102437.44;;;31.56;38.38
72414;BME280;60995;52.154;4.498;2022-07-12T07:17:53;102431.97;;;31.18;38.90
72414;BME280;60995;52.154;4.498;2022-07-12T07:20:15;102433.88;;;29.17;42.97
72414;BME280;60995;52.154;4.498;2022-07-12T07:22:32;102429.97;;;28.86;43.91
72414;BME280;60995;52.154;4.498;2022-07-12T07:24:50;102435.41;;;29.13;43.14
72414;BME280;60995;52.154;4.498;2022-07-12T07:27:07;102427.06;;;29.70;42.33
72414;BME280;60995;52.154;4.498;2022-07-12T07:29:26;102426.84;;;28.49;44.92
72414;BME280;60995;52.154;4.498;2022-07-12T07:32:01;102426.47;;;28.32;45.30
72414;BME280;60995;52.154;4.498;2022-07-12T07:34:18;102419.06;;;28.65;44.71
72414;BME280;60995;52.154;4.498;2022-07-12T07:36:38;102424.53;;;28.19;45.64
72414;BME280;60995;52.154;4.498;2022-07-12T07:38:54;102429.81;;;27.27;46.92
72414;BME280;60995;52.154;4.498;2022-07-12T07:41:13;102418.25;;;27.23;47.44
72414;BME280;60995;52.154;4.498;2022-07-12T07:43:30;102428.09;;;27.19;47.03
72414;BME280;60995;52.154;4.498;2022-07-12T07:45:46;102429.69;;;26.80;47.68
72414;BME280;60995;52.154;4.498;2022-07-12T07:48:03;102436.78;;;28.32;44.70
72414;BME280;60995;52.154;4.498;2022-07-12T07:50:37;102445.00;;;29.95;40.44
72414;BME280;60995;52.154;4.498;2022-07-12T07:52:54;102433.94;;;31.30;37.79
72414;BME280;60995;52.154;4.498;2022-07-12T07:59:04;102425.97;;;40.14;23.48
72414;BME280;60995;52.154;4.498;2022-07-12T08:01:23;102419.81;;;39.73;23.14
72414;BME280;60995;52.154;4.498;2022-07-12T08:03:58;102420.94;;;39.77;22.89
72414;BME280;60995;52.154;4.498;2022-07-12T08:06:17;102431.19;;;37.76;25.22
72414;BME280;60995;52.154;4.498;2022-07-12T08:08:33;102427.78;;;37.43;25.91
72414;BME280;60995;52.154;4.498;2022-07-12T08:10:50;102432.81;;;38.39;24.75
72414;BME280;60995;52.154;4.498;2022-07-12T08:13:07;102435.72;;;38.89;23.79
72414;BME280;60995;52.154;4.498;2022-07-12T08:15:24;102430.31;;;37.19;25.70
72414;BME280;60995;52.154;4.498;2022-07-12T08:17:40;102428.38;;;37.97;24.68
72414;BME280;60995;52.154;4.498;2022-07-12T08:27:09;102412.34;;;34.50;29.75
72414;BME280;60995;52.154;4.498;2022-07-12T08:29:28;102413.41;;;35.10;28.90
72414;BME280;60995;52.154;4.498;2022-07-12T08:31:44;102420.44;;;37.99;25.34
72414;BME280;60995;52.154;4.498;2022-07-12T08:34:03;102410.13;;;34.96;28.86
72414;BME280;60995;52.154;4.498;2022-07-12T08:36:20;102422.13;;;34.25;29.88
72414;BME280;60995;52.154;4.498;2022-07-12T08:38:39;102426.75;;;34.31;30.13
72414;BME280;60995;52.154;4.498;2022-07-12T08:40:59;102421.03;;;32.95;32.33
72414;BME280;60995;52.154;4.498;2022-07-12T08:43:23;102417.28;;;33.06;32.26
72414;BME280;60995;52.154;4.498;2022-07-12T08:45:39;102413.81;;;33.62;31.69
72414;BME280;60995;52.154;4.498;2022-07-12T08:48:07;102403.34;;;32.30;33.58
72414;BME280;60995;52.154;4.498;2022-07-12T08:50:23;102403.06;;;30.69;36.68
72414;BME280;60995;52.154;4.498;2022-07-12T08:52:53;102408.53;;;32.50;33.30
72414;BME280;60995;52.154;4.498;2022-07-12T08:55:27;102413.31;;;32.49;33.41
72414;BME280;60995;52.154;4.498;2022-07-12T08:57:45;102417.50;;;31.88;34.70
72414;BME280;60995;52.154;4.498;2022-07-12T09:00:06;102417.78;;;30.02;37.43
72414;BME280;60995;52.154;4.498;2022-07-12T09:02:26;102423.13;;;29.78;36.61
72414;BME280;60995;52.154;4.498;2022-07-12T09:04:43;102425.47;;;31.18;35.29
72414;BME280;60995;52.154;4.498;2022-07-12T09:07:13;102429.13;;;32.27;33.00
72414;BME280;60995;52.154;4.498;2022-07-12T09:09:33;102438.56;;;33.43;31.36
72414;BME280;60995;52.154;4.498;2022-07-12T09:11:53;102436.50;;;34.23;29.83
72414;BME280;60995;52.154;4.498;2022-07-12T09:14:18;102431.91;;;35.28;28.83
72414;BME280;60995;52.154;4.498;2022-07-12T09:16:37;102431.91;;;34.78;29.51
72414;BME280;60995;52.154;4.498;2022-07-12T09:19:13;102436.88;;;34.49;30.21
72414;BME280;60995;52.154;4.498;2022-07-12T09:21:32;102417.22;;;34.76;29.97
72414;BME280;60995;52.154;4.498;2022-07-12T09:23:56;102424.09;;;34.41;30.12
72414;BME280;60995;52.154;4.498;2022-07-12T09:26:18;102427.84;;;34.30;30.36
72414;BME280;60995;52.154;4.498;2022-07-12T09:29:13;102420.91;;;33.19;32.03
72414;BME280;60995;52.154;4.498;2022-07-12T09:35:43;102425.22;;;34.62;28.91
72414;BME280;60995;52.154;4.498;2022-07-12T09:38:22;102423.03;;;35.41;28.20
72414;BME280;60995;52.154;4.498;2022-07-12T09:40:40;102414.78;;;35.07;29.24
72414;BME280;60995;52.154;4.498;2022-07-12T09:42:57;102415.38;;;34.65;29.87
72414;BME280;60995;52.154;4.498;2022-07-12T09:45:14;102412.00;;;34.63;29.91
72414;BME280;60995;52.154;4.498;2022-07-12T09:47:34;102412.31;;;35.43;28.85
72414;BME280;60995;52.154;4.498;2022-07-12T09:49:51;102408.72;;;33.93;30.72
72414;BME280;60995;52.154;4.498;2022-07-12T09:52:15;102412.28;;;34.05;29.88
72414;BME280;60995;52.154;4.498;2022-07-12T09:54:41;102407.91;;;34.98;28.95
72414;BME280;60995;52.154;4.498;2022-07-12T09:57:03;102404.50;;;34.96;28.38
72414;BME280;60995;52.154;4.498;2022-07-12T09:59:34;102420.16;;;37.59;24.65
72414;BME280;60995;52.154;4.498;2022-07-12T10:01:53;102423.53;;;37.61;24.66
72414;BME280;60995;52.154;4.498;2022-07-12T10:04:17;102424.53;;;38.58;23.79
72414;BME280;60995;52.154;4.498;2022-07-12T10:06:40;102431.53;;;37.85;24.40
72414;BME280;60995;52.154;4.498;2022-07-12T10:08:57;102434.53;;;38.25;24.63
72414;BME280;60995;52.154;4.498;2022-07-12T10:11:19;102427.16;;;36.36;26.14
72414;BME280;60995;52.154;4.498;2022-07-12T10:13:58;102428.50;;;34.15;29.44
72414;BME280;60995;52.154;4.498;2022-07-12T10:16:26;102430.03;;;33.72;29.36
72414;BME280;60995;52.154;4.498;2022-07-12T10:21:55;102440.53;;;33.76;29.67
72414;BME280;60995;52.154;4.498;2022-07-12T10:26:50;102428.53;;;33.98;29.81
72414;BME280;60995;52.154;4.498;2022-07-12T10:29:08;102423.88;;;33.41;30.05
72414;BME280;60995;52.154;4.498;2022-07-12T10:31:28;102437.34;;;35.95;27.25
72414;BME280;60995;52.154;4.498;2022-07-12T10:34:19;102437.72;;;34.50;28.83
72414;BME280;60995;52.154;4.498;2022-07-12T10:39:32;102431.47;;;38.05;23.63
72414;BME280;60995;52.154;4.498;2022-07-12T10:44:55;102436.28;;;38.15;23.17
72414;BME280;60995;52.154;4.498;2022-07-12T10:47:53;102424.34;;;37.20;24.55
72414;BME280;60995;52.154;4.498;2022-07-12T10:53:20;102425.81;;;37.90;23.30
72414;BME280;60995;52.154;4.498;2022-07-12T10:58:45;102424.47;;;35.76;25.35
72414;BME280;60995;52.154;4.498;2022-07-12T11:03:54;102417.53;;;34.80;27.02
72414;BME280;60995;52.154;4.498;2022-07-12T11:06:25;102415.34;;;36.45;25.41
72414;BME280;60995;52.154;4.498;2022-07-12T11:11:08;102424.03;;;34.36;26.84
72414;BME280;60995;52.154;4.498;2022-07-12T11:13:25;102416.94;;;35.00;25.60
72414;BME280;60995;52.154;4.498;2022-07-12T11:15:57;102416.22;;;36.02;24.63
72414;BME280;60995;52.154;4.498;2022-07-12T11:18:30;102420.28;;;36.22;24.77
72414;BME280;60995;52.154;4.498;2022-07-12T11:20:55;102418.75;;;36.47;23.96
72414;BME280;60995;52.154;4.498;2022-07-12T11:23:13;102412.50;;;37.65;22.51
72414;BME280;60995;52.154;4.498;2022-07-12T11:25:29;102415.53;;;36.91;23.34
72414;BME280;60995;52.154;4.498;2022-07-12T11:27:47;102411.34;;;37.30;23.06
72414;BME280;60995;52.154;4.498;2022-07-12T11:30:10;102407.72;;;35.65;25.07
72414;BME280;60995;52.154;4.498;2022-07-12T11:32:38;102413.34;;;35.32;26.10
72414;BME280;60995;52.154;4.498;2022-07-12T11:35:22;102413.50;;;36.28;25.21
72414;BME280;60995;52.154;4.498;2022-07-12T11:38:01;102414.31;;;36.66;24.22
72414;BME280;60995;52.154;4.498;2022-07-12T11:40:28;102412.25;;;37.40;23.46
72414;BME280;60995;52.154;4.498;2022-07-12T11:43:02;102404.78;;;36.98;24.25
72414;BME280;60995;52.154;4.498;2022-07-12T11:45:20;102402.28;;;36.38;24.78
72414;BME280;60995;52.154;4.498;2022-07-12T11:47:37;102401.06;;;34.94;27.02
72414;BME280;60995;52.154;4.498;2022-07-12T11:49:55;102396.19;;;34.01;28.17
72414;BME280;60995;52.154;4.498;2022-07-12T11:52:16;102400.19;;;33.71;28.01
72414;BME280;60995;52.154;4.498;2022-07-12T11:54:36;102398.38;;;33.64;28.20
72414;BME280;60995;52.154;4.498;2022-07-12T11:57:08;102394.91;;;33.57;28.44
72414;BME280;60995;52.154;4.498;2022-07-12T11:59:28;102390.53;;;34.01;27.60
72414;BME280;60995;52.154;4.498;2022-07-12T12:02:02;102391.31;;;33.96;28.33
72414;BME280;60995;52.154;4.498;2022-07-12T12:04:30;102385.34;;;34.98;30.56
72414;BME280;60995;52.154;4.498;2022-07-12T12:06:55;102383.09;;;35.27;30.25
72414;BME280;60995;52.154;4.498;2022-07-12T12:09:12;102379.84;;;35.78;29.67
72414;BME280;60995;52.154;4.498;2022-07-12T12:11:33;102374.44;;;35.34;29.78
72414;BME280;60995;52.154;4.498;2022-07-12T12:13:58;102370.31;;;35.47;29.65
72414;BME280;60995;52.154;4.498;2022-07-12T12:16:17;102372.38;;;34.97;29.65
72414;BME280;60995;52.154;4.498;2022-07-12T12:18:36;102373.69;;;34.23;30.17
72414;BME280;60995;52.154;4.498;2022-07-12T12:21:01;102371.19;;;33.53;31.74
72414;BME280;60995;52.154;4.498;2022-07-12T12:23:20;102364.44;;;33.54;31.19
72414;BME280;60995;52.154;4.498;2022-07-12T12:25:41;102362.28;;;33.10;30.15
72414;BME280;60995;52.154;4.498;2022-07-12T12:28:08;102365.75;;;34.20;28.18
72414;BME280;60995;52.154;4.498;2022-07-12T12:30:24;102379.75;;;32.84;29.17
72414;BME280;60995;52.154;4.498;2022-07-12T12:32:55;102377.53;;;32.45;29.75
72414;BME280;60995;52.154;4.498;2022-07-12T12:35:16;102381.16;;;32.98;29.59
72414;BME280;60995;52.154;4.498;2022-07-12T12:37:54;102382.56;;;32.84;29.31
72414;BME280;60995;52.154;4.498;2022-07-12T12:40:28;102390.09;;;32.95;29.84
72414;BME280;60995;52.154;4.498;2022-07-12T12:42:47;102378.34;;;33.27;28.97
72414;BME280;60995;52.154;4.498;2022-07-12T12:45:05;102384.59;;;33.80;28.37
72414;BME280;60995;52.154;4.498;2022-07-12T12:47:22;102373.81;;;32.97;28.96
72414;BME280;60995;52.154;4.498;2022-07-12T12:49:51;102383.06;;;33.09;29.42
72414;BME280;60995;52.154;4.498;2022-07-12T12:52:13;102382.13;;;33.50;28.95
72414;BME280;60995;52.154;4.498;2022-07-12T12:54:48;102373.16;;;33.36;31.44